Rechercher aéroport 
image banner adimage banner adimage banner ad
image banner ad

O85 - Benton Field

Situé à Redding, United States

ICAO - O85, IATA - BZF

Données fournies par Airmate  

Information générale

Coordonnées: N40°34'25" W122°24'26"
Élévation : 723 feet MSL.
Variation magnétique : 17° East
Voir autres Aéroports à California

Données opérationnelles

Special qualification required
Heure actuelle UTC:
Heure actuelle locale:
Météo à : KRDD - Redding Muni ( 12 km )
METAR: KRDD 251253Z AUTO 00000KT 10SM FU CLR 20/09 A2988 RMK AO2 SLP110 T02000094
TAF: KRDD 251120Z 2512/2612 VRB03KT P6SM SCT250 FM252200 18009KT P6SM SCT150 BKN250
Voir NOTAMs / SUP AIP / TFR affectant cet aéroport [VIEW]
Fréquences de communication: [VIEW]

Pistes:

Identifiant RWYQFULongueur (ft)Largeur (ft)SurfaceLDA (ft)
15242075ASPH
33242075ASPH

Coordonnées de l'aéroport

Adresse: Redding United States

Autres services d'aviation

Écoles de pilotage

Benton Air Center

Benton Air Center

Vue satellite de O85